sensor_id;sensor_type;location;lat;lon;timestamp;P1;durP1;ratioP1;P2;durP2;ratioP2
29500;SDS011;16450;50.288;10.966;2023-06-22T00:00:14;12.80;;;10.00;;
29500;SDS011;16450;50.288;10.966;2023-06-22T00:03:17;12.95;;;10.13;;
29500;SDS011;16450;50.288;10.966;2023-06-22T00:06:20;12.93;;;10.00;;
29500;SDS011;16450;50.288;10.966;2023-06-22T00:09:22;14.50;;;10.20;;
29500;SDS011;16450;50.288;10.966;2023-06-22T00:12:24;12.07;;;9.93;;
29500;SDS011;16450;50.288;10.966;2023-06-22T00:15:26;13.27;;;10.03;;
29500;SDS011;16450;50.288;10.966;2023-06-22T00:18:28;13.52;;;9.90;;
29500;SDS011;16450;50.288;10.966;2023-06-22T00:21:32;14.10;;;10.00;;
29500;SDS011;16450;50.288;10.966;2023-06-22T00:24:34;13.82;;;10.30;;
29500;SDS011;16450;50.288;10.966;2023-06-22T00:27:36;13.20;;;10.07;;
29500;SDS011;16450;50.288;10.966;2023-06-22T00:30:38;13.10;;;9.93;;
29500;SDS011;16450;50.288;10.966;2023-06-22T00:33:40;12.10;;;10.40;;
29500;SDS011;16450;50.288;10.966;2023-06-22T00:36:42;13.37;;;10.20;;
29500;SDS011;16450;50.288;10.966;2023-06-22T00:39:44;13.60;;;10.63;;
29500;SDS011;16450;50.288;10.966;2023-06-22T00:42:46;14.27;;;10.80;;
29500;SDS011;16450;50.288;10.966;2023-06-22T00:45:48;13.13;;;11.07;;
29500;SDS011;16450;50.288;10.966;2023-06-22T00:48:50;14.03;;;11.17;;
29500;SDS011;16450;50.288;10.966;2023-06-22T00:51:52;13.67;;;10.47;;
29500;SDS011;16450;50.288;10.966;2023-06-22T00:54:55;14.60;;;10.47;;
29500;SDS011;16450;50.288;10.966;2023-06-22T00:57:58;13.23;;;10.87;;
29500;SDS011;16450;50.288;10.966;2023-06-22T01:01:00;14.00;;;11.37;;
29500;SDS011;16450;50.288;10.966;2023-06-22T01:04:02;13.13;;;10.40;;
29500;SDS011;16450;50.288;10.966;2023-06-22T01:11:16;13.53;;;10.60;;
29500;SDS011;16450;50.288;10.966;2023-06-22T01:13:58;12.67;;;11.00;;
29500;SDS011;16450;50.288;10.966;2023-06-22T01:17:05;13.27;;;10.63;;
29500;SDS011;16450;50.288;10.966;2023-06-22T01:20:09;16.20;;;11.27;;
29500;SDS011;16450;50.288;10.966;2023-06-22T01:23:17;16.67;;;11.03;;
29500;SDS011;16450;50.288;10.966;2023-06-22T01:26:42;15.63;;;10.73;;
29500;SDS011;16450;50.288;10.966;2023-06-22T01:29:50;11.27;;;9.70;;
29500;SDS011;16450;50.288;10.966;2023-06-22T01:32:53;14.73;;;11.17;;
29500;SDS011;16450;50.288;10.966;2023-06-22T01:36:00;12.48;;;10.30;;
29500;SDS011;16450;50.288;10.966;2023-06-22T01:39:03;14.53;;;10.80;;
29500;SDS011;16450;50.288;10.966;2023-06-22T01:42:06;15.10;;;10.43;;
29500;SDS011;16450;50.288;10.966;2023-06-22T01:45:08;12.30;;;10.67;;
29500;SDS011;16450;50.288;10.966;2023-06-22T01:48:12;16.03;;;11.10;;
29500;SDS011;16450;50.288;10.966;2023-06-22T01:51:14;15.30;;;10.87;;
29500;SDS011;16450;50.288;10.966;2023-06-22T01:54:16;13.17;;;11.07;;
29500;SDS011;16450;50.288;10.966;2023-06-22T01:57:18;16.13;;;10.33;;
29500;SDS011;16450;50.288;10.966;2023-06-22T02:00:21;14.73;;;10.57;;
29500;SDS011;16450;50.288;10.966;2023-06-22T02:03:27;12.83;;;11.03;;
29500;SDS011;16450;50.288;10.966;2023-06-22T02:06:36;13.60;;;10.67;;
29500;SDS011;16450;50.288;10.966;2023-06-22T02:09:40;12.50;;;10.23;;
29500;SDS011;16450;50.288;10.966;2023-06-22T02:12:45;13.67;;;10.67;;
29500;SDS011;16450;50.288;10.966;2023-06-22T02:15:49;13.17;;;10.67;;
29500;SDS011;16450;50.288;10.966;2023-06-22T02:18:51;13.60;;;10.60;;
29500;SDS011;16450;50.288;10.966;2023-06-22T02:21:53;13.17;;;10.50;;
29500;SDS011;16450;50.288;10.966;2023-06-22T02:24:55;14.37;;;11.37;;
29500;SDS011;16450;50.288;10.966;2023-06-22T02:27:57;15.97;;;11.83;;
29500;SDS011;16450;50.288;10.966;2023-06-22T02:30:59;14.87;;;10.87;;
29500;SDS011;16450;50.288;10.966;2023-06-22T02:34:01;14.70;;;11.70;;
29500;SDS011;16450;50.288;10.966;2023-06-22T02:37:03;16.87;;;11.30;;
29500;SDS011;16450;50.288;10.966;2023-06-22T02:40:06;13.07;;;11.43;;
29500;SDS011;16450;50.288;10.966;2023-06-22T02:43:10;15.63;;;11.13;;
29500;SDS011;16450;50.288;10.966;2023-06-22T02:46:12;16.40;;;11.87;;
29500;SDS011;16450;50.288;10.966;2023-06-22T02:49:15;13.33;;;11.60;;
29500;SDS011;16450;50.288;10.966;2023-06-22T02:52:17;14.27;;;11.70;;
29500;SDS011;16450;50.288;10.966;2023-06-22T02:55:19;15.03;;;11.70;;
29500;SDS011;16450;50.288;10.966;2023-06-22T02:58:21;14.80;;;11.80;;
29500;SDS011;16450;50.288;10.966;2023-06-22T03:01:23;15.27;;;12.10;;
29500;SDS011;16450;50.288;10.966;2023-06-22T03:04:26;17.00;;;11.43;;
29500;SDS011;16450;50.288;10.966;2023-06-22T03:07:28;14.70;;;11.90;;
29500;SDS011;16450;50.288;10.966;2023-06-22T03:10:31;15.63;;;11.90;;
29500;SDS011;16450;50.288;10.966;2023-06-22T03:13:33;19.27;;;12.70;;
29500;SDS011;16450;50.288;10.966;2023-06-22T03:16:35;16.97;;;12.93;;
29500;SDS011;16450;50.288;10.966;2023-06-22T03:19:38;19.07;;;13.60;;
29500;SDS011;16450;50.288;10.966;2023-06-22T03:22:41;15.90;;;13.43;;
29500;SDS011;16450;50.288;10.966;2023-06-22T03:25:43;17.33;;;13.50;;
29500;SDS011;16450;50.288;10.966;2023-06-22T03:28:48;19.07;;;13.80;;
29500;SDS011;16450;50.288;10.966;2023-06-22T03:31:50;16.60;;;12.97;;
29500;SDS011;16450;50.288;10.966;2023-06-22T03:34:52;17.33;;;14.10;;
29500;SDS011;16450;50.288;10.966;2023-06-22T03:37:54;17.63;;;13.97;;
29500;SDS011;16450;50.288;10.966;2023-06-22T03:40:56;19.03;;;13.67;;
29500;SDS011;16450;50.288;10.966;2023-06-22T03:43:58;17.17;;;14.47;;
29500;SDS011;16450;50.288;10.966;2023-06-22T03:47:00;18.33;;;14.73;;
29500;SDS011;16450;50.288;10.966;2023-06-22T03:50:03;18.23;;;14.47;;
29500;SDS011;16450;50.288;10.966;2023-06-22T03:53:05;20.27;;;14.53;;
29500;SDS011;16450;50.288;10.966;2023-06-22T03:56:07;20.93;;;14.67;;
29500;SDS011;16450;50.288;10.966;2023-06-22T03:59:09;18.83;;;15.03;;
29500;SDS011;16450;50.288;10.966;2023-06-22T04:02:11;16.70;;;14.17;;
29500;SDS011;16450;50.288;10.966;2023-06-22T04:05:13;17.50;;;14.03;;
29500;SDS011;16450;50.288;10.966;2023-06-22T04:08:15;18.03;;;14.37;;
29500;SDS011;16450;50.288;10.966;2023-06-22T04:11:18;19.30;;;13.87;;
29500;SDS011;16450;50.288;10.966;2023-06-22T04:14:20;16.77;;;13.00;;
29500;SDS011;16450;50.288;10.966;2023-06-22T04:17:22;15.87;;;12.97;;
29500;SDS011;16450;50.288;10.966;2023-06-22T04:20:26;17.67;;;13.13;;
29500;SDS011;16450;50.288;10.966;2023-06-22T04:23:30;15.27;;;13.13;;
29500;SDS011;16450;50.288;10.966;2023-06-22T04:26:33;17.53;;;12.93;;
29500;SDS011;16450;50.288;10.966;2023-06-22T04:29:38;17.03;;;13.10;;
29500;SDS011;16450;50.288;10.966;2023-06-22T04:32:50;15.33;;;13.10;;
29500;SDS011;16450;50.288;10.966;2023-06-22T04:35:59;16.83;;;13.33;;
29500;SDS011;16450;50.288;10.966;2023-06-22T04:39:09;18.37;;;14.70;;
29500;SDS011;16450;50.288;10.966;2023-06-22T04:42:12;17.47;;;13.93;;
29500;SDS011;16450;50.288;10.966;2023-06-22T04:45:15;16.10;;;13.50;;
29500;SDS011;16450;50.288;10.966;2023-06-22T04:48:17;16.23;;;13.63;;
29500;SDS011;16450;50.288;10.966;2023-06-22T04:51:19;16.07;;;13.00;;
29500;SDS011;16450;50.288;10.966;2023-06-22T04:54:23;15.68;;;12.80;;
29500;SDS011;16450;50.288;10.966;2023-06-22T04:57:25;17.30;;;13.35;;
29500;SDS011;16450;50.288;10.966;2023-06-22T05:00:34;18.52;;;13.07;;
29500;SDS011;16450;50.288;10.966;2023-06-22T05:03:37;17.85;;;12.73;;
29500;SDS011;16450;50.288;10.966;2023-06-22T05:06:42;15.70;;;12.45;;
29500;SDS011;16450;50.288;10.966;2023-06-22T05:09:44;14.73;;;12.45;;
29500;SDS011;16450;50.288;10.966;2023-06-22T05:12:46;13.32;;;11.70;;
29500;SDS011;16450;50.288;10.966;2023-06-22T05:15:48;12.40;;;10.32;;
29500;SDS011;16450;50.288;10.966;2023-06-22T05:18:59;13.45;;;10.52;;
29500;SDS011;16450;50.288;10.966;2023-06-22T05:22:00;13.23;;;10.70;;
29500;SDS011;16450;50.288;10.966;2023-06-22T05:25:02;13.25;;;9.98;;
29500;SDS011;16450;50.288;10.966;2023-06-22T05:28:06;11.73;;;9.77;;
29500;SDS011;16450;50.288;10.966;2023-06-22T05:31:15;12.38;;;9.40;;
29500;SDS011;16450;50.288;10.966;2023-06-22T05:34:17;13.45;;;9.32;;
29500;SDS011;16450;50.288;10.966;2023-06-22T05:37:19;12.10;;;9.55;;
29500;SDS011;16450;50.288;10.966;2023-06-22T05:40:21;9.90;;;8.90;;
29500;SDS011;16450;50.288;10.966;2023-06-22T05:43:23;10.93;;;8.80;;
29500;SDS011;16450;50.288;10.966;2023-06-22T05:46:25;10.82;;;8.88;;
29500;SDS011;16450;50.288;10.966;2023-06-22T05:49:27;12.38;;;8.38;;
29500;SDS011;16450;50.288;10.966;2023-06-22T05:52:34;11.13;;;8.45;;
29500;SDS011;16450;50.288;10.966;2023-06-22T05:55:36;11.25;;;9.20;;
29500;SDS011;16450;50.288;10.966;2023-06-22T05:58:38;10.75;;;8.30;;
29500;SDS011;16450;50.288;10.966;2023-06-22T06:01:40;11.50;;;8.93;;
29500;SDS011;16450;50.288;10.966;2023-06-22T06:04:42;10.43;;;8.35;;
29500;SDS011;16450;50.288;10.966;2023-06-22T06:07:44;9.93;;;8.88;;
29500;SDS011;16450;50.288;10.966;2023-06-22T06:10:46;9.60;;;7.32;;
29500;SDS011;16450;50.288;10.966;2023-06-22T06:13:48;8.35;;;7.45;;
29500;SDS011;16450;50.288;10.966;2023-06-22T06:16:50;8.20;;;7.40;;
29500;SDS011;16450;50.288;10.966;2023-06-22T06:19:52;8.68;;;6.80;;
29500;SDS011;16450;50.288;10.966;2023-06-22T06:22:54;8.85;;;7.60;;
29500;SDS011;16450;50.288;10.966;2023-06-22T06:25:57;10.00;;;7.05;;
29500;SDS011;16450;50.288;10.966;2023-06-22T06:28:59;8.05;;;6.88;;
29500;SDS011;16450;50.288;10.966;2023-06-22T06:32:02;10.27;;;7.25;;
29500;SDS011;16450;50.288;10.966;2023-06-22T06:35:05;9.20;;;7.13;;
29500;SDS011;16450;50.288;10.966;2023-06-22T06:38:07;7.35;;;6.35;;
29500;SDS011;16450;50.288;10.966;2023-06-22T06:41:09;7.68;;;6.35;;
29500;SDS011;16450;50.288;10.966;2023-06-22T06:44:11;8.95;;;7.63;;
29500;SDS011;16450;50.288;10.966;2023-06-22T06:47:13;7.78;;;6.60;;
29500;SDS011;16450;50.288;10.966;2023-06-22T06:50:15;7.20;;;6.43;;
29500;SDS011;16450;50.288;10.966;2023-06-22T06:53:17;7.53;;;6.43;;
29500;SDS011;16450;50.288;10.966;2023-06-22T06:56:19;7.50;;;6.22;;
29500;SDS011;16450;50.288;10.966;2023-06-22T06:59:21;7.45;;;6.65;;
29500;SDS011;16450;50.288;10.966;2023-06-22T07:02:23;7.68;;;6.63;;
29500;SDS011;16450;50.288;10.966;2023-06-22T07:05:29;7.38;;;6.20;;
29500;SDS011;16450;50.288;10.966;2023-06-22T07:08:30;7.22;;;6.43;;
29500;SDS011;16450;50.288;10.966;2023-06-22T07:11:32;7.07;;;6.22;;
29500;SDS011;16450;50.288;10.966;2023-06-22T07:14:34;7.97;;;6.28;;
29500;SDS011;16450;50.288;10.966;2023-06-22T07:17:36;7.95;;;5.97;;
29500;SDS011;16450;50.288;10.966;2023-06-22T07:20:38;6.32;;;5.65;;
29500;SDS011;16450;50.288;10.966;2023-06-22T07:23:43;6.97;;;5.70;;
29500;SDS011;16450;50.288;10.966;2023-06-22T07:26:45;7.60;;;5.72;;
29500;SDS011;16450;50.288;10.966;2023-06-22T07:29:51;6.90;;;6.20;;
29500;SDS011;16450;50.288;10.966;2023-06-22T07:32:53;7.63;;;6.20;;
29500;SDS011;16450;50.288;10.966;2023-06-22T07:35:55;8.23;;;6.72;;
29500;SDS011;16450;50.288;10.966;2023-06-22T07:38:57;7.07;;;6.25;;
29500;SDS011;16450;50.288;10.966;2023-06-22T07:41:59;7.78;;;6.03;;
29500;SDS011;16450;50.288;10.966;2023-06-22T07:45:02;8.35;;;5.95;;
29500;SDS011;16450;50.288;10.966;2023-06-22T07:48:05;7.07;;;6.38;;
29500;SDS011;16450;50.288;10.966;2023-06-22T07:51:07;6.90;;;6.20;;
29500;SDS011;16450;50.288;10.966;2023-06-22T07:54:09;7.03;;;5.75;;
29500;SDS011;16450;50.288;10.966;2023-06-22T07:57:11;7.18;;;6.15;;
29500;SDS011;16450;50.288;10.966;2023-06-22T08:00:13;8.07;;;6.75;;
29500;SDS011;16450;50.288;10.966;2023-06-22T08:03:16;7.78;;;6.53;;
29500;SDS011;16450;50.288;10.966;2023-06-22T08:06:18;9.02;;;5.90;;
29500;SDS011;16450;50.288;10.966;2023-06-22T08:09:20;7.63;;;6.65;;
29500;SDS011;16450;50.288;10.966;2023-06-22T08:12:23;8.00;;;6.35;;
29500;SDS011;16450;50.288;10.966;2023-06-22T08:15:26;9.07;;;6.32;;
29500;SDS011;16450;50.288;10.966;2023-06-22T08:18:28;7.70;;;6.18;;
29500;SDS011;16450;50.288;10.966;2023-06-22T08:21:30;8.07;;;6.18;;
29500;SDS011;16450;50.288;10.966;2023-06-22T08:24:32;9.98;;;6.07;;
29500;SDS011;16450;50.288;10.966;2023-06-22T08:27:34;7.85;;;5.50;;
29500;SDS011;16450;50.288;10.966;2023-06-22T08:30:36;8.73;;;5.65;;
29500;SDS011;16450;50.288;10.966;2023-06-22T08:33:39;7.72;;;5.47;;
29500;SDS011;16450;50.288;10.966;2023-06-22T08:36:50;7.20;;;6.00;;
29500;SDS011;16450;50.288;10.966;2023-06-22T08:39:53;6.50;;;5.50;;
29500;SDS011;16450;50.288;10.966;2023-06-22T08:42:55;6.03;;;5.43;;
29500;SDS011;16450;50.288;10.966;2023-06-22T08:45:57;7.57;;;5.22;;
29500;SDS011;16450;50.288;10.966;2023-06-22T08:48:59;6.20;;;5.07;;
29500;SDS011;16450;50.288;10.966;2023-06-22T08:52:01;6.78;;;5.95;;
29500;SDS011;16450;50.288;10.966;2023-06-22T08:55:03;6.50;;;5.38;;
29500;SDS011;16450;50.288;10.966;2023-06-22T08:58:05;7.10;;;5.50;;
29500;SDS011;16450;50.288;10.966;2023-06-22T09:01:08;8.27;;;5.47;;
29500;SDS011;16450;50.288;10.966;2023-06-22T09:04:09;7.47;;;5.50;;
29500;SDS011;16450;50.288;10.966;2023-06-22T09:07:12;5.90;;;5.22;;
29500;SDS011;16450;50.288;10.966;2023-06-22T09:10:14;6.82;;;5.22;;
29500;SDS011;16450;50.288;10.966;2023-06-22T09:13:16;6.38;;;5.30;;
29500;SDS011;16450;50.288;10.966;2023-06-22T09:16:18;6.43;;;5.20;;
29500;SDS011;16450;50.288;10.966;2023-06-22T09:19:20;7.40;;;5.18;;
29500;SDS011;16450;50.288;10.966;2023-06-22T09:22:21;8.27;;;5.25;;
29500;SDS011;16450;50.288;10.966;2023-06-22T09:25:24;6.38;;;5.22;;
29500;SDS011;16450;50.288;10.966;2023-06-22T09:28:26;6.50;;;5.03;;
29500;SDS011;16450;50.288;10.966;2023-06-22T09:31:28;8.65;;;5.28;;
29500;SDS011;16450;50.288;10.966;2023-06-22T09:34:30;6.45;;;5.40;;
29500;SDS011;16450;50.288;10.966;2023-06-22T09:37:32;17.55;;;5.80;;
29500;SDS011;16450;50.288;10.966;2023-06-22T09:40:34;6.22;;;5.18;;
29500;SDS011;16450;50.288;10.966;2023-06-22T09:43:41;8.35;;;5.45;;
29500;SDS011;16450;50.288;10.966;2023-06-22T09:46:43;6.15;;;5.25;;
29500;SDS011;16450;50.288;10.966;2023-06-22T09:49:45;6.07;;;5.47;;
29500;SDS011;16450;50.288;10.966;2023-06-22T09:52:49;7.30;;;5.70;;
29500;SDS011;16450;50.288;10.966;2023-06-22T09:55:56;6.07;;;5.32;;
29500;SDS011;16450;50.288;10.966;2023-06-22T09:58:58;6.47;;;5.28;;
29500;SDS011;16450;50.288;10.966;2023-06-22T10:02:17;7.45;;;5.40;;
29500;SDS011;16450;50.288;10.966;2023-06-22T10:05:20;7.57;;;5.63;;
29500;SDS011;16450;50.288;10.966;2023-06-22T10:08:22;6.90;;;5.78;;
29500;SDS011;16450;50.288;10.966;2023-06-22T10:11:23;8.13;;;5.85;;
29500;SDS011;16450;50.288;10.966;2023-06-22T10:14:30;7.30;;;5.47;;
29500;SDS011;16450;50.288;10.966;2023-06-22T10:17:32;7.60;;;5.85;;
29500;SDS011;16450;50.288;10.966;2023-06-22T10:20:34;8.68;;;6.20;;
29500;SDS011;16450;50.288;10.966;2023-06-22T10:23:37;10.25;;;5.63;;
29500;SDS011;16450;50.288;10.966;2023-06-22T10:26:39;5.85;;;5.20;;
29500;SDS011;16450;50.288;10.966;2023-06-22T10:29:41;5.75;;;5.15;;
29500;SDS011;16450;50.288;10.966;2023-06-22T10:32:43;6.15;;;4.72;;
29500;SDS011;16450;50.288;10.966;2023-06-22T10:35:45;6.53;;;5.53;;
29500;SDS011;16450;50.288;10.966;2023-06-22T10:38:47;6.32;;;5.20;;
29500;SDS011;16450;50.288;10.966;2023-06-22T10:41:50;5.85;;;5.20;;
29500;SDS011;16450;50.288;10.966;2023-06-22T10:44:52;6.13;;;5.47;;
29500;SDS011;16450;50.288;10.966;2023-06-22T10:47:53;7.13;;;5.70;;
29500;SDS011;16450;50.288;10.966;2023-06-22T10:50:55;9.43;;;5.65;;
29500;SDS011;16450;50.288;10.966;2023-06-22T10:53:57;7.70;;;5.38;;
29500;SDS011;16450;50.288;10.966;2023-06-22T10:56:59;7.65;;;5.28;;
29500;SDS011;16450;50.288;10.966;2023-06-22T11:00:02;5.90;;;5.40;;
29500;SDS011;16450;50.288;10.966;2023-06-22T11:03:07;5.88;;;5.15;;
29500;SDS011;16450;50.288;10.966;2023-06-22T11:06:10;7.57;;;5.25;;
29500;SDS011;16450;50.288;10.966;2023-06-22T11:09:12;5.28;;;4.78;;
29500;SDS011;16450;50.288;10.966;2023-06-22T11:12:17;6.72;;;5.28;;
29500;SDS011;16450;50.288;10.966;2023-06-22T11:15:19;6.72;;;5.63;;
29500;SDS011;16450;50.288;10.966;2023-06-22T11:18:21;6.30;;;5.43;;
29500;SDS011;16450;50.288;10.966;2023-06-22T11:21:24;7.90;;;5.38;;
29500;SDS011;16450;50.288;10.966;2023-06-22T11:24:26;7.88;;;5.18;;
29500;SDS011;16450;50.288;10.966;2023-06-22T11:27:28;8.82;;;5.43;;
29500;SDS011;16450;50.288;10.966;2023-06-22T11:30:30;7.40;;;5.60;;
29500;SDS011;16450;50.288;10.966;2023-06-22T11:33:32;7.38;;;5.13;;
29500;SDS011;16450;50.288;10.966;2023-06-22T11:36:34;6.05;;;5.45;;
29500;SDS011;16450;50.288;10.966;2023-06-22T11:39:36;7.18;;;5.43;;
29500;SDS011;16450;50.288;10.966;2023-06-22T11:42:48;6.75;;;5.35;;
29500;SDS011;16450;50.288;10.966;2023-06-22T11:45:50;6.05;;;5.18;;
29500;SDS011;16450;50.288;10.966;2023-06-22T11:48:52;7.25;;;5.47;;
29500;SDS011;16450;50.288;10.966;2023-06-22T11:51:54;7.40;;;5.57;;
29500;SDS011;16450;50.288;10.966;2023-06-22T11:54:55;7.72;;;5.68;;
29500;SDS011;16450;50.288;10.966;2023-06-22T11:57:57;6.15;;;5.20;;
29500;SDS011;16450;50.288;10.966;2023-06-22T12:01:04;6.90;;;5.32;;
29500;SDS011;16450;50.288;10.966;2023-06-22T12:04:06;7.53;;;5.47;;
29500;SDS011;16450;50.288;10.966;2023-06-22T12:07:08;7.47;;;5.35;;
29500;SDS011;16450;50.288;10.966;2023-06-22T12:10:10;8.93;;;5.15;;
29500;SDS011;16450;50.288;10.966;2023-06-22T12:13:12;7.22;;;5.07;;
29500;SDS011;16450;50.288;10.966;2023-06-22T12:16:14;6.50;;;5.05;;
29500;SDS011;16450;50.288;10.966;2023-06-22T12:19:16;6.00;;;4.68;;
29500;SDS011;16450;50.288;10.966;2023-06-22T12:22:18;6.90;;;4.85;;
29500;SDS011;16450;50.288;10.966;2023-06-22T12:25:20;8.10;;;4.80;;
29500;SDS011;16450;50.288;10.966;2023-06-22T12:28:22;7.18;;;4.72;;
29500;SDS011;16450;50.288;10.966;2023-06-22T12:31:24;9.27;;;5.47;;
29500;SDS011;16450;50.288;10.966;2023-06-22T12:34:26;5.93;;;4.90;;
29500;SDS011;16450;50.288;10.966;2023-06-22T12:37:28;6.72;;;4.65;;
29500;SDS011;16450;50.288;10.966;2023-06-22T12:40:30;5.95;;;4.72;;
29500;SDS011;16450;50.288;10.966;2023-06-22T12:43:33;9.65;;;4.88;;
29500;SDS011;16450;50.288;10.966;2023-06-22T12:46:35;5.45;;;4.82;;
29500;SDS011;16450;50.288;10.966;2023-06-22T12:49:39;7.03;;;4.95;;
29500;SDS011;16450;50.288;10.966;2023-06-22T12:52:40;7.43;;;5.18;;
29500;SDS011;16450;50.288;10.966;2023-06-22T12:55:42;7.45;;;5.07;;
29500;SDS011;16450;50.288;10.966;2023-06-22T12:58:44;7.45;;;4.93;;
29500;SDS011;16450;50.288;10.966;2023-06-22T13:01:46;7.63;;;5.32;;
29500;SDS011;16450;50.288;10.966;2023-06-22T13:04:48;7.25;;;5.65;;
29500;SDS011;16450;50.288;10.966;2023-06-22T13:07:50;6.80;;;4.85;;
29500;SDS011;16450;50.288;10.966;2023-06-22T13:10:52;7.30;;;4.70;;
29500;SDS011;16450;50.288;10.966;2023-06-22T13:13:54;7.25;;;4.95;;
29500;SDS011;16450;50.288;10.966;2023-06-22T13:16:56;5.65;;;4.90;;
29500;SDS011;16450;50.288;10.966;2023-06-22T13:19:58;7.05;;;4.90;;
29500;SDS011;16450;50.288;10.966;2023-06-22T13:23:00;5.13;;;4.55;;
29500;SDS011;16450;50.288;10.966;2023-06-22T13:26:01;8.43;;;5.05;;
29500;SDS011;16450;50.288;10.966;2023-06-22T13:29:04;7.22;;;4.65;;
29500;SDS011;16450;50.288;10.966;2023-06-22T13:32:06;8.45;;;4.90;;
29500;SDS011;16450;50.288;10.966;2023-06-22T13:35:11;8.93;;;4.93;;
29500;SDS011;16450;50.288;10.966;2023-06-22T13:38:13;5.60;;;4.35;;
29500;SDS011;16450;50.288;10.966;2023-06-22T13:41:15;5.75;;;4.20;;
29500;SDS011;16450;50.288;10.966;2023-06-22T13:44:17;8.77;;;4.70;;
29500;SDS011;16450;50.288;10.966;2023-06-22T13:47:19;10.60;;;5.15;;
29500;SDS011;16450;50.288;10.966;2023-06-22T13:50:21;6.35;;;4.22;;
29500;SDS011;16450;50.288;10.966;2023-06-22T13:53:24;9.52;;;4.93;;
29500;SDS011;16450;50.288;10.966;2023-06-22T13:56:27;8.27;;;4.57;;
29500;SDS011;16450;50.288;10.966;2023-06-22T13:59:29;7.55;;;4.53;;
29500;SDS011;16450;50.288;10.966;2023-06-22T14:02:31;6.35;;;4.50;;
29500;SDS011;16450;50.288;10.966;2023-06-22T14:05:33;6.75;;;4.70;;
29500;SDS011;16450;50.288;10.966;2023-06-22T14:08:36;7.00;;;4.63;;
29500;SDS011;16450;50.288;10.966;2023-06-22T14:11:42;7.38;;;4.65;;
29500;SDS011;16450;50.288;10.966;2023-06-22T14:14:44;9.05;;;4.78;;
29500;SDS011;16450;50.288;10.966;2023-06-22T14:17:46;6.97;;;4.97;;
29500;SDS011;16450;50.288;10.966;2023-06-22T14:20:48;7.22;;;4.60;;
29500;SDS011;16450;50.288;10.966;2023-06-22T14:23:50;8.45;;;4.88;;
29500;SDS011;16450;50.288;10.966;2023-06-22T14:26:52;15.90;;;4.90;;
29500;SDS011;16450;50.288;10.966;2023-06-22T14:29:54;9.63;;;4.78;;
29500;SDS011;16450;50.288;10.966;2023-06-22T14:32:56;6.80;;;4.50;;
29500;SDS011;16450;50.288;10.966;2023-06-22T14:35:58;6.32;;;4.72;;
29500;SDS011;16450;50.288;10.966;2023-06-22T14:39:00;8.43;;;5.07;;
29500;SDS011;16450;50.288;10.966;2023-06-22T14:42:02;8.90;;;4.40;;
29500;SDS011;16450;50.288;10.966;2023-06-22T14:45:07;8.55;;;5.10;;
29500;SDS011;16450;50.288;10.966;2023-06-22T14:48:09;9.55;;;4.93;;
29500;SDS011;16450;50.288;10.966;2023-06-22T14:51:11;6.82;;;4.43;;
29500;SDS011;16450;50.288;10.966;2023-06-22T14:54:17;11.90;;;5.40;;
29500;SDS011;16450;50.288;10.966;2023-06-22T14:57:19;9.25;;;4.38;;
29500;SDS011;16450;50.288;10.966;2023-06-22T15:00:21;7.53;;;4.40;;
29500;SDS011;16450;50.288;10.966;2023-06-22T15:03:23;10.88;;;4.78;;
29500;SDS011;16450;50.288;10.966;2023-06-22T15:06:29;9.93;;;5.13;;
29500;SDS011;16450;50.288;10.966;2023-06-22T15:09:31;10.80;;;4.90;;
29500;SDS011;16450;50.288;10.966;2023-06-22T15:12:33;10.75;;;5.13;;
29500;SDS011;16450;50.288;10.966;2023-06-22T15:15:35;6.97;;;4.72;;
29500;SDS011;16450;50.288;10.966;2023-06-22T15:18:36;10.55;;;4.65;;
29500;SDS011;16450;50.288;10.966;2023-06-22T15:21:38;7.63;;;4.40;;
29500;SDS011;16450;50.288;10.966;2023-06-22T15:24:40;8.23;;;4.85;;
29500;SDS011;16450;50.288;10.966;2023-06-22T15:27:42;7.78;;;4.53;;
29500;SDS011;16450;50.288;10.966;2023-06-22T15:30:44;9.25;;;4.85;;
29500;SDS011;16450;50.288;10.966;2023-06-22T15:33:49;13.85;;;4.88;;
29500;SDS011;16450;50.288;10.966;2023-06-22T15:36:51;6.45;;;4.70;;
29500;SDS011;16450;50.288;10.966;2023-06-22T15:39:53;8.43;;;4.88;;
29500;SDS011;16450;50.288;10.966;2023-06-22T15:42:57;10.05;;;4.97;;
29500;SDS011;16450;50.288;10.966;2023-06-22T15:45:59;8.07;;;4.68;;
29500;SDS011;16450;50.288;10.966;2023-06-22T15:49:01;8.70;;;4.80;;
29500;SDS011;16450;50.288;10.966;2023-06-22T15:52:03;7.43;;;4.63;;
29500;SDS011;16450;50.288;10.966;2023-06-22T15:55:05;10.23;;;4.93;;
29500;SDS011;16450;50.288;10.966;2023-06-22T15:58:09;7.75;;;4.97;;
29500;SDS011;16450;50.288;10.966;2023-06-22T16:01:14;7.38;;;4.65;;
29500;SDS011;16450;50.288;10.966;2023-06-22T16:04:16;11.45;;;4.97;;
29500;SDS011;16450;50.288;10.966;2023-06-22T16:07:18;9.70;;;4.65;;
29500;SDS011;16450;50.288;10.966;2023-06-22T16:10:20;8.80;;;4.90;;
29500;SDS011;16450;50.288;10.966;2023-06-22T16:13:22;8.90;;;4.70;;
29500;SDS011;16450;50.288;10.966;2023-06-22T16:16:23;7.88;;;4.53;;
29500;SDS011;16450;50.288;10.966;2023-06-22T16:19:25;8.68;;;4.97;;
29500;SDS011;16450;50.288;10.966;2023-06-22T16:22:27;10.68;;;5.13;;
29500;SDS011;16450;50.288;10.966;2023-06-22T16:25:31;7.93;;;5.13;;
29500;SDS011;16450;50.288;10.966;2023-06-22T16:28:33;10.73;;;5.20;;
29500;SDS011;16450;50.288;10.966;2023-06-22T16:31:35;12.52;;;5.10;;
29500;SDS011;16450;50.288;10.966;2023-06-22T16:34:37;9.02;;;5.38;;
29500;SDS011;16450;50.288;10.966;2023-06-22T16:37:39;7.25;;;4.93;;
29500;SDS011;16450;50.288;10.966;2023-06-22T16:40:41;9.18;;;5.00;;
29500;SDS011;16450;50.288;10.966;2023-06-22T16:43:43;7.40;;;4.85;;
29500;SDS011;16450;50.288;10.966;2023-06-22T16:46:45;9.38;;;5.40;;
29500;SDS011;16450;50.288;10.966;2023-06-22T16:49:47;10.15;;;5.07;;
29500;SDS011;16450;50.288;10.966;2023-06-22T16:52:50;13.20;;;5.07;;
29500;SDS011;16450;50.288;10.966;2023-06-22T16:55:52;8.48;;;4.82;;
29500;SDS011;16450;50.288;10.966;2023-06-22T16:58:55;10.07;;;5.15;;
29500;SDS011;16450;50.288;10.966;2023-06-22T17:02:09;9.23;;;5.60;;
29500;SDS011;16450;50.288;10.966;2023-06-22T17:05:18;10.20;;;4.78;;
29500;SDS011;16450;50.288;10.966;2023-06-22T17:08:21;11.30;;;5.40;;
29500;SDS011;16450;50.288;10.966;2023-06-22T17:11:23;8.63;;;5.43;;
29500;SDS011;16450;50.288;10.966;2023-06-22T17:14:26;8.35;;;5.15;;
29500;SDS011;16450;50.288;10.966;2023-06-22T17:17:28;8.27;;;5.05;;
29500;SDS011;16450;50.288;10.966;2023-06-22T17:20:31;8.43;;;5.38;;
29500;SDS011;16450;50.288;10.966;2023-06-22T17:23:33;8.73;;;5.20;;
29500;SDS011;16450;50.288;10.966;2023-06-22T17:26:35;8.27;;;5.03;;
29500;SDS011;16450;50.288;10.966;2023-06-22T17:29:37;7.38;;;4.85;;
29500;SDS011;16450;50.288;10.966;2023-06-22T17:32:39;9.52;;;5.07;;
29500;SDS011;16450;50.288;10.966;2023-06-22T17:35:50;10.50;;;5.35;;
29500;SDS011;16450;50.288;10.966;2023-06-22T17:38:58;7.80;;;5.53;;
29500;SDS011;16450;50.288;10.966;2023-06-22T17:42:00;9.75;;;5.30;;
29500;SDS011;16450;50.288;10.966;2023-06-22T17:45:03;9.35;;;5.25;;
29500;SDS011;16450;50.288;10.966;2023-06-22T17:48:05;9.38;;;5.85;;
29500;SDS011;16450;50.288;10.966;2023-06-22T17:51:09;10.30;;;5.70;;
29500;SDS011;16450;50.288;10.966;2023-06-22T17:54:14;9.52;;;5.57;;
29500;SDS011;16450;50.288;10.966;2023-06-22T17:57:16;8.65;;;5.70;;